createdAt,value
2022-12-14T00:01:49.627Z,11.73
2022-12-14T00:04:20.405Z,13.70
2022-12-14T00:06:48.424Z,11.90
2022-12-14T00:09:16.281Z,13.30
2022-12-14T00:11:44.260Z,12.30
2022-12-14T00:14:13.516Z,13.52
2022-12-14T00:16:41.469Z,13.82
2022-12-14T00:19:11.586Z,13.82
2022-12-14T00:21:39.502Z,14.57
2022-12-14T00:24:07.708Z,14.27
2022-12-14T00:26:35.608Z,12.73
2022-12-14T00:29:03.751Z,12.85
2022-12-14T00:31:33.322Z,13.30
2022-12-14T00:34:02.131Z,13.80
2022-12-14T00:36:31.636Z,13.68
2022-12-14T00:39:00.066Z,13.50
2022-12-14T00:41:28.106Z,13.38
2022-12-14T00:43:56.119Z,14.48
2022-12-14T00:46:24.060Z,14.52
2022-12-14T00:48:53.378Z,16.08
2022-12-14T00:51:21.282Z,16.33
2022-12-14T00:53:49.360Z,15.07
2022-12-14T00:56:17.320Z,16.45
2022-12-14T00:58:50.765Z,15.45
2022-12-14T01:01:18.996Z,15.82
2022-12-14T01:03:47.180Z,14.88
2022-12-14T01:06:19.049Z,14.55
2022-12-14T01:08:47.505Z,13.55
2022-12-14T01:11:15.670Z,13.80
2022-12-14T01:13:43.725Z,14.48
2022-12-14T01:16:14.210Z,13.77
2022-12-14T01:18:44.194Z,13.90
2022-12-14T01:21:14.355Z,15.32
2022-12-14T01:23:44.996Z,15.05
2022-12-14T01:26:13.269Z,14.27
2022-12-14T01:28:41.526Z,14.40
2022-12-14T01:31:12.029Z,15.43
2022-12-14T01:33:40.659Z,15.43
2022-12-14T01:36:10.208Z,15.45
2022-12-14T01:38:38.680Z,16.65
2022-12-14T01:41:09.649Z,15.75
2022-12-14T01:43:49.078Z,15.73
2022-12-14T01:46:22.262Z,15.50
2022-12-14T01:48:51.716Z,16.42
2022-12-14T01:51:19.779Z,15.70
2022-12-14T01:53:48.167Z,17.40
2022-12-14T01:56:18.816Z,15.57
2022-12-14T01:58:46.847Z,16.13
2022-12-14T02:01:15.162Z,15.90
2022-12-14T02:03:46.956Z,14.77
2022-12-14T02:06:19.550Z,16.38
2022-12-14T02:08:48.583Z,15.70
2022-12-14T02:11:33.984Z,17.85
2022-12-14T02:14:01.884Z,17.75
2022-12-14T02:16:30.280Z,17.00
2022-12-14T02:18:58.199Z,16.45
2022-12-14T02:21:37.659Z,16.63
2022-12-14T02:24:34.300Z,17.40
2022-12-14T02:27:19.540Z,16.90
2022-12-14T02:30:11.674Z,17.88
2022-12-14T02:32:53.062Z,17.92
2022-12-14T02:35:30.445Z,16.42
2022-12-14T02:38:08.839Z,16.20
2022-12-14T02:40:43.140Z,16.40
2022-12-14T02:43:19.099Z,16.77
2022-12-14T02:45:55.572Z,16.65
2022-12-14T02:48:27.559Z,16.17
2022-12-14T02:51:04.556Z,16.17
2022-12-14T02:53:37.499Z,17.17
2022-12-14T02:56:09.678Z,16.55
2022-12-14T02:58:40.888Z,16.33
2022-12-14T03:01:15.464Z,16.98
2022-12-14T03:03:44.060Z,16.88
2022-12-14T03:06:26.174Z,27.85
2022-12-14T03:08:59.028Z,18.15
2022-12-14T03:11:34.281Z,16.50
2022-12-14T03:14:07.657Z,16.90
2022-12-14T03:16:42.602Z,19.42
2022-12-14T03:19:16.879Z,16.65
2022-12-14T03:21:48.668Z,17.48
2022-12-14T03:24:20.510Z,16.90
2022-12-14T03:26:52.864Z,16.88
2022-12-14T03:29:24.464Z,17.85
2022-12-14T03:31:55.693Z,17.67
2022-12-14T03:34:28.332Z,16.92
2022-12-14T03:37:03.381Z,18.48
2022-12-14T03:39:34.472Z,16.73
2022-12-14T03:42:11.069Z,17.55
2022-12-14T03:44:49.441Z,17.40
2022-12-14T03:47:33.741Z,17.23
2022-12-14T03:50:05.819Z,17.33
2022-12-14T03:52:38.728Z,17.25
2022-12-14T03:55:21.475Z,16.75
2022-12-14T03:58:01.378Z,17.15
2022-12-14T04:00:33.109Z,16.77
2022-12-14T04:03:11.246Z,17.38
2022-12-14T04:05:48.735Z,17.83
2022-12-14T04:08:23.787Z,17.83
2022-12-14T04:11:12.800Z,18.63
2022-12-14T04:14:04.048Z,19.10
2022-12-14T04:16:54.140Z,19.88
2022-12-14T04:19:27.410Z,22.48
2022-12-14T04:22:00.113Z,20.42
2022-12-14T04:24:53.111Z,21.35
2022-12-14T04:27:25.816Z,21.40
2022-12-14T04:29:56.851Z,20.98
2022-12-14T04:32:30.745Z,21.42
2022-12-14T04:35:05.358Z,26.10
2022-12-14T04:37:36.908Z,24.02
2022-12-14T04:40:09.778Z,19.45
2022-12-14T04:42:44.940Z,18.52
2022-12-14T04:45:18.171Z,18.80
2022-12-14T04:47:52.450Z,18.35
2022-12-14T04:50:27.957Z,19.35
2022-12-14T04:53:01.112Z,19.65
2022-12-14T04:55:35.371Z,20.58
2022-12-14T04:58:09.920Z,20.13
2022-12-14T05:00:50.354Z,19.77
2022-12-14T05:03:25.897Z,18.58
2022-12-14T05:06:06.662Z,18.80
2022-12-14T05:08:57.793Z,19.10
2022-12-14T05:11:52.577Z,19.05
2022-12-14T05:14:23.267Z,18.63
2022-12-14T05:16:51.632Z,19.95
2022-12-14T05:19:19.597Z,19.23
2022-12-14T05:21:48.928Z,19.73
2022-12-14T05:24:18.109Z,19.60
2022-12-14T05:26:46.199Z,20.92
2022-12-14T05:29:14.970Z,21.02
2022-12-14T05:31:42.880Z,20.90
2022-12-14T05:34:17.272Z,20.92
2022-12-14T05:36:45.276Z,20.70
2022-12-14T05:39:15.117Z,21.90
2022-12-14T05:41:43.568Z,20.20
2022-12-14T05:44:11.626Z,20.35
2022-12-14T05:46:40.064Z,18.15
2022-12-14T05:49:07.984Z,18.35
2022-12-14T05:51:35.984Z,18.90
2022-12-14T05:54:04.020Z,19.95
2022-12-14T05:56:33.294Z,19.30
2022-12-14T05:59:02.494Z,19.40
2022-12-14T06:01:30.533Z,20.05
2022-12-14T06:03:58.477Z,19.85
2022-12-14T06:06:26.500Z,18.58
2022-12-14T06:08:54.440Z,18.85
2022-12-14T06:11:23.857Z,19.80
2022-12-14T06:13:53.175Z,19.52
2022-12-14T06:16:23.310Z,29.00
2022-12-14T06:18:52.919Z,30.73
2022-12-14T06:21:22.595Z,31.52
2022-12-14T06:23:50.664Z,26.17
2022-12-14T06:26:19.119Z,24.08
2022-12-14T06:28:47.099Z,20.73
2022-12-14T06:31:18.672Z,20.50
2022-12-14T06:33:46.889Z,21.58
2022-12-14T06:36:19.151Z,21.67
2022-12-14T06:38:47.453Z,20.70
2022-12-14T06:41:15.537Z,21.30
2022-12-14T06:43:43.885Z,21.45
2022-12-14T06:46:15.719Z,22.42
2022-12-14T06:48:49.764Z,19.65
2022-12-14T06:51:18.144Z,21.25
2022-12-14T06:53:46.307Z,19.50
2022-12-14T06:56:16.358Z,20.10
2022-12-14T06:58:44.706Z,21.30
2022-12-14T07:01:15.253Z,20.92
2022-12-14T07:03:48.375Z,20.83
2022-12-14T07:06:16.667Z,20.25
2022-12-14T07:08:45.225Z,20.35
2022-12-14T07:11:14.798Z,21.48
2022-12-14T07:13:43.543Z,21.42
2022-12-14T07:16:16.576Z,21.15
2022-12-14T07:18:45.999Z,27.48
2022-12-14T07:21:15.991Z,26.05
2022-12-14T07:23:45.591Z,27.08
2022-12-14T07:26:16.271Z,25.90
2022-12-14T07:28:44.713Z,26.25
2022-12-14T07:31:14.891Z,24.83
2022-12-14T07:33:43.050Z,28.08
2022-12-14T07:36:15.786Z,25.70
2022-12-14T07:38:46.464Z,23.42
2022-12-14T07:41:20.540Z,22.35
2022-12-14T07:43:50.771Z,24.73
2022-12-14T07:46:20.509Z,22.33
2022-12-14T07:48:49.975Z,22.02
2022-12-14T07:51:22.459Z,23.55
2022-12-14T07:53:53.633Z,21.45
2022-12-14T07:56:24.846Z,21.63
2022-12-14T07:58:53.232Z,25.00
2022-12-14T08:01:23.247Z,22.75
2022-12-14T08:03:53.166Z,21.60
2022-12-14T08:06:24.279Z,21.70
2022-12-14T08:08:53.558Z,22.30
2022-12-14T08:11:22.614Z,23.88
2022-12-14T08:13:54.455Z,24.00
2022-12-14T08:16:22.674Z,24.30
2022-12-14T08:18:51.611Z,24.10
2022-12-14T08:21:21.596Z,24.23
2022-12-14T08:23:51.877Z,24.05
2022-12-14T08:26:20.799Z,23.20
2022-12-14T08:28:49.212Z,24.08
2022-12-14T08:31:18.975Z,24.58
2022-12-14T08:33:47.676Z,25.40
2022-12-14T08:36:17.453Z,25.83
2022-12-14T08:38:46.036Z,22.27
2022-12-14T08:41:18.419Z,22.23
2022-12-14T08:43:50.179Z,24.73
2022-12-14T08:46:18.273Z,25.55
2022-12-14T08:48:46.354Z,24.85
2022-12-14T08:51:14.729Z,25.85
2022-12-14T08:53:42.654Z,26.58
2022-12-14T08:56:13.334Z,27.77
2022-12-14T08:58:43.064Z,27.05
2022-12-14T09:01:13.748Z,25.38
2022-12-14T09:03:42.568Z,34.65
2022-12-14T09:06:13.035Z,27.45
2022-12-14T09:08:41.554Z,26.15
2022-12-14T09:11:12.806Z,27.75
2022-12-14T09:13:42.407Z,27.38
2022-12-14T09:16:13.081Z,28.85
2022-12-14T09:18:41.324Z,31.02
2022-12-14T09:21:09.839Z,28.98
2022-12-14T09:23:38.081Z,28.50
2022-12-14T09:26:08.245Z,29.30
2022-12-14T09:28:38.547Z,28.88
2022-12-14T09:31:09.701Z,30.10
2022-12-14T09:33:37.865Z,29.17
2022-12-14T09:36:07.993Z,30.08
2022-12-14T09:38:37.731Z,30.38
2022-12-14T09:41:07.916Z,28.25
2022-12-14T09:43:41.414Z,30.90
2022-12-14T09:46:37.033Z,30.08
2022-12-14T09:49:05.329Z,27.90
2022-12-14T09:51:36.667Z,28.95
2022-12-14T09:54:08.510Z,28.60
2022-12-14T09:56:39.415Z,30.08
2022-12-14T09:59:07.564Z,33.65
2022-12-14T10:02:13.905Z,39.40
2022-12-14T10:04:47.832Z,28.55
2022-12-14T10:07:22.359Z,28.63
2022-12-14T10:09:57.567Z,28.23
2022-12-14T10:12:36.745Z,31.58
2022-12-14T10:15:15.724Z,30.52
2022-12-14T10:18:03.353Z,31.70
2022-12-14T10:20:42.912Z,31.63
2022-12-14T10:23:21.096Z,28.52
2022-12-14T10:25:55.817Z,27.13
2022-12-14T10:28:30.706Z,29.65
2022-12-14T10:31:02.414Z,30.58
2022-12-14T10:33:32.994Z,30.50
2022-12-14T10:36:09.126Z,30.20
2022-12-14T10:38:44.497Z,29.70
2022-12-14T10:41:26.410Z,28.92
2022-12-14T10:44:00.694Z,30.30
2022-12-14T10:46:35.047Z,27.88
2022-12-14T10:49:14.399Z,27.92
2022-12-14T10:51:46.869Z,29.17
2022-12-14T10:54:25.613Z,29.58
2022-12-14T10:56:53.615Z,27.27
2022-12-14T11:00:03.274Z,28.63
2022-12-14T11:02:37.920Z,28.15
2022-12-14T11:05:23.488Z,29.25
2022-12-14T11:07:52.148Z,30.90
2022-12-14T11:10:22.419Z,28.60
2022-12-14T11:12:59.710Z,27.63
2022-12-14T11:15:31.118Z,27.42
2022-12-14T11:18:05.736Z,30.42
2022-12-14T11:20:35.437Z,35.60
2022-12-14T11:23:09.302Z,31.80
2022-12-14T11:25:40.799Z,29.40
2022-12-14T11:28:30.091Z,32.65
2022-12-14T11:31:04.042Z,33.72
2022-12-14T11:33:35.829Z,33.28
2022-12-14T11:36:05.441Z,35.83
2022-12-14T11:38:33.628Z,34.63
2022-12-14T11:41:10.607Z,30.80
2022-12-14T11:43:39.687Z,32.60
2022-12-14T11:46:07.970Z,31.52
2022-12-14T11:48:38.414Z,33.88
2022-12-14T11:51:15.137Z,32.67
2022-12-14T11:53:43.251Z,33.25
2022-12-14T11:56:17.141Z,31.95
2022-12-14T11:58:52.314Z,32.97
2022-12-14T12:01:24.837Z,32.85
2022-12-14T12:03:56.930Z,33.75
2022-12-14T12:06:28.705Z,34.90
2022-12-14T12:08:58.568Z,37.22
2022-12-14T12:11:29.500Z,36.75
2022-12-14T12:14:01.721Z,39.63
2022-12-14T12:16:32.787Z,41.40
2022-12-14T12:19:11.634Z,40.60
2022-12-14T12:21:44.686Z,45.35
2022-12-14T12:24:19.282Z,43.95
2022-12-14T12:26:50.768Z,38.58
2022-12-14T12:29:25.278Z,41.78
2022-12-14T12:31:58.765Z,45.58
2022-12-14T12:34:31.396Z,39.72
2022-12-14T12:39:57.823Z,38.65
2022-12-14T12:42:35.843Z,36.00
2022-12-14T12:45:12.548Z,36.38
2022-12-14T12:47:47.623Z,38.15
2022-12-14T12:50:18.721Z,43.72
2022-12-14T12:53:02.397Z,44.10
2022-12-14T12:55:36.637Z,36.83
2022-12-14T12:58:09.831Z,35.08
2022-12-14T13:00:41.198Z,34.50
2022-12-14T13:03:14.430Z,29.48
2022-12-14T13:05:46.862Z,35.63
2022-12-14T13:08:24.902Z,45.33
2022-12-14T13:11:25.103Z,44.75
2022-12-14T13:13:47.949Z,41.03
2022-12-14T13:16:24.695Z,36.88
2022-12-14T13:19:13.215Z,39.03
2022-12-14T13:21:51.414Z,40.00
2022-12-14T13:24:22.606Z,40.45
2022-12-14T13:27:35.379Z,39.38
2022-12-14T13:30:18.516Z,40.90
2022-12-14T13:33:02.396Z,39.90
2022-12-14T13:35:53.355Z,44.00
2022-12-14T13:38:48.981Z,51.20
2022-12-14T13:41:31.780Z,46.17
2022-12-14T13:44:36.105Z,48.72
2022-12-14T13:47:15.734Z,51.90
2022-12-14T13:50:26.637Z,46.65
2022-12-14T13:52:45.693Z,45.03
2022-12-14T13:55:34.322Z,43.63
2022-12-14T13:58:17.025Z,44.08
2022-12-14T14:00:51.910Z,41.67
2022-12-14T14:03:45.289Z,46.40
2022-12-14T14:06:41.284Z,52.55
2022-12-14T14:09:46.500Z,51.38
2022-12-14T14:12:41.781Z,48.72
2022-12-14T14:15:52.044Z,46.47
2022-12-14T14:18:29.901Z,41.35
2022-12-14T14:21:30.636Z,42.15
2022-12-14T14:24:01.030Z,41.53
2022-12-14T14:26:32.073Z,45.75
2022-12-14T14:29:33.006Z,45.83
2022-12-14T14:32:04.589Z,46.85
2022-12-14T14:34:47.078Z,47.47
2022-12-14T14:37:31.338Z,47.42
2022-12-14T14:40:21.670Z,58.20
2022-12-14T14:42:56.755Z,56.28
2022-12-14T14:45:33.215Z,49.13
2022-12-14T14:48:09.257Z,53.05
2022-12-14T14:50:39.920Z,52.42
2022-12-14T14:53:31.296Z,51.78
2022-12-14T14:56:13.535Z,46.15
2022-12-14T14:58:43.086Z,45.80
2022-12-14T15:01:24.631Z,45.28
2022-12-14T15:03:57.597Z,47.92
2022-12-14T15:06:29.697Z,43.80
2022-12-14T15:09:01.525Z,44.58
2022-12-14T15:11:37.206Z,41.00
2022-12-14T15:14:19.007Z,41.28
2022-12-14T15:16:47.181Z,43.75
2022-12-14T15:19:25.318Z,55.65
2022-12-14T15:21:57.363Z,56.92
2022-12-14T15:24:26.740Z,53.22
2022-12-14T15:26:54.946Z,57.47
2022-12-14T15:29:28.756Z,51.38
2022-12-14T15:32:00.570Z,55.08
2022-12-14T15:34:30.103Z,54.80
2022-12-14T15:36:58.637Z,51.42
2022-12-14T15:39:38.291Z,52.95
2022-12-14T15:42:11.332Z,54.28
2022-12-14T15:44:43.813Z,56.60
2022-12-14T15:47:26.971Z,50.97
2022-12-14T15:50:01.321Z,55.03
2022-12-14T15:52:31.866Z,45.70
2022-12-14T15:55:01.105Z,46.88
2022-12-14T15:57:29.261Z,43.67
2022-12-14T16:00:01.131Z,42.03
2022-12-14T16:02:32.202Z,53.20
2022-12-14T16:05:04.240Z,44.95
2022-12-14T16:07:38.485Z,54.55
2022-12-14T16:10:16.295Z,53.38
2022-12-14T16:12:47.836Z,54.05
2022-12-14T16:15:20.891Z,45.38
2022-12-14T16:17:53.657Z,51.50
2022-12-14T16:20:29.610Z,47.85
2022-12-14T16:23:01.367Z,48.83
2022-12-14T16:25:30.520Z,50.85
2022-12-14T16:27:58.815Z,44.22
2022-12-14T16:30:29.896Z,48.38
2022-12-14T16:33:16.682Z,46.90
2022-12-14T16:35:47.509Z,43.20
2022-12-14T16:38:18.038Z,44.45
2022-12-14T16:40:55.122Z,42.55
2022-12-14T16:43:30.751Z,41.72
2022-12-14T16:46:19.940Z,43.72
2022-12-14T16:49:03.951Z,44.42
2022-12-14T16:52:05.700Z,44.88
2022-12-14T16:54:30.145Z,43.25
2022-12-14T16:57:04.159Z,43.80
2022-12-14T16:59:40.694Z,40.80
2022-12-14T17:02:26.185Z,40.30
2022-12-14T17:04:54.892Z,39.97
2022-12-14T17:07:27.138Z,37.13
2022-12-14T17:09:56.699Z,39.67
2022-12-14T17:12:26.427Z,40.92
2022-12-14T17:14:54.986Z,42.13
2022-12-14T17:17:29.948Z,42.38
2022-12-14T17:19:58.122Z,36.92
2022-12-14T17:22:30.777Z,41.60
2022-12-14T17:24:59.309Z,39.55
2022-12-14T17:27:27.801Z,36.47
2022-12-14T17:29:57.408Z,35.47
2022-12-14T17:32:29.906Z,38.67
2022-12-14T17:34:57.905Z,33.22
2022-12-14T17:37:32.585Z,30.65
2022-12-14T17:40:05.194Z,31.50
2022-12-14T17:42:33.340Z,28.15
2022-12-14T17:45:02.018Z,30.35
2022-12-14T17:47:30.090Z,29.42
2022-12-14T17:49:58.157Z,29.48
2022-12-14T17:52:31.810Z,31.00
2022-12-14T17:55:01.437Z,31.08
2022-12-14T17:57:29.659Z,32.17
2022-12-14T18:00:11.685Z,31.30
2022-12-14T18:02:40.652Z,30.20
2022-12-14T18:05:18.503Z,31.20
2022-12-14T18:07:49.575Z,31.02
2022-12-14T18:10:19.565Z,29.17
2022-12-14T18:12:47.839Z,31.35
2022-12-14T18:15:19.585Z,29.48
2022-12-14T18:17:49.256Z,30.90
2022-12-14T18:20:17.727Z,31.92
2022-12-14T18:22:49.584Z,31.50
2022-12-14T18:25:30.344Z,32.53
2022-12-14T18:27:58.661Z,39.80
2022-12-14T18:30:27.070Z,40.88
2022-12-14T18:32:55.966Z,36.10
2022-12-14T18:35:26.063Z,31.77
2022-12-14T18:37:55.648Z,34.20
2022-12-14T18:40:26.080Z,34.53
2022-12-14T18:42:54.922Z,31.33
2022-12-14T18:45:25.059Z,32.08
2022-12-14T18:47:54.110Z,32.67
2022-12-14T18:50:23.282Z,31.30
2022-12-14T18:52:51.663Z,31.63
2022-12-14T18:55:23.735Z,32.72
2022-12-14T18:57:53.593Z,35.22
2022-12-14T19:00:23.439Z,34.03
2022-12-14T19:02:52.271Z,35.58
2022-12-14T19:05:26.092Z,32.13
2022-12-14T19:07:54.850Z,35.05
2022-12-14T19:10:26.913Z,34.28
2022-12-14T19:12:55.875Z,36.78
2022-12-14T19:15:26.520Z,34.13
2022-12-14T19:17:54.825Z,35.22
2022-12-14T19:20:23.262Z,33.45
2022-12-14T19:22:52.215Z,37.97
2022-12-14T19:25:22.189Z,37.88
2022-12-14T19:30:41.392Z,34.85
2022-12-14T19:33:10.590Z,36.08
2022-12-14T19:35:41.084Z,37.88
2022-12-14T19:38:13.438Z,36.03
2022-12-14T19:40:41.794Z,34.65
2022-12-14T19:43:11.132Z,33.35
2022-12-14T19:45:40.577Z,32.58
2022-12-14T19:48:12.949Z,31.38
2022-12-14T19:50:41.311Z,31.15
2022-12-14T19:53:09.349Z,30.48
2022-12-14T19:55:37.389Z,30.08
2022-12-14T19:58:05.534Z,29.55
2022-12-14T20:00:34.945Z,36.92
2022-12-14T20:03:03.260Z,34.22
2022-12-14T20:05:31.503Z,30.17
2022-12-14T20:07:59.504Z,30.00
2022-12-14T20:10:27.606Z,29.30
2022-12-14T20:12:55.564Z,30.30
2022-12-14T20:15:23.774Z,35.00
2022-12-14T20:18:10.212Z,31.88
2022-12-14T20:20:38.262Z,30.70
2022-12-14T20:23:06.243Z,30.65
2022-12-14T20:25:34.509Z,31.00
2022-12-14T20:28:03.133Z,32.15
2022-12-14T20:30:31.690Z,34.25
2022-12-14T20:32:59.657Z,34.47
2022-12-14T20:35:28.929Z,33.17
2022-12-14T20:37:56.934Z,36.50
2022-12-14T20:40:24.997Z,33.25
2022-12-14T20:42:54.451Z,30.65
2022-12-14T20:45:22.451Z,29.63
2022-12-14T20:47:53.700Z,32.28
2022-12-14T20:50:22.082Z,30.75
2022-12-14T20:52:51.431Z,30.63
2022-12-14T20:55:19.712Z,29.38
2022-12-14T20:57:47.744Z,28.30
2022-12-14T21:00:16.456Z,27.85
2022-12-14T21:02:44.535Z,28.00
2022-12-14T21:05:12.545Z,28.40
2022-12-14T21:07:40.577Z,26.83
2022-12-14T21:10:10.721Z,27.48
2022-12-14T21:12:37.825Z,27.23
2022-12-14T21:15:06.761Z,29.08
2022-12-14T21:17:34.872Z,27.90
2022-12-14T21:20:03.640Z,30.98
2022-12-14T21:22:31.900Z,27.65
2022-12-14T21:25:03.571Z,28.92
2022-12-14T21:27:35.154Z,29.10
2022-12-14T21:30:03.570Z,28.73
2022-12-14T21:32:31.576Z,31.35
2022-12-14T21:34:59.574Z,30.45
2022-12-14T21:37:27.492Z,29.83
2022-12-14T21:39:56.013Z,31.13
2022-12-14T21:42:23.521Z,31.25
2022-12-14T21:44:54.157Z,32.25
2022-12-14T21:47:25.343Z,30.52
2022-12-14T21:49:53.909Z,35.28
2022-12-14T21:52:24.674Z,34.72
2022-12-14T21:54:52.571Z,33.85
2022-12-14T21:57:39.665Z,33.20
2022-12-14T22:00:11.491Z,32.00
2022-12-14T22:02:41.507Z,31.25
2022-12-14T22:05:10.394Z,30.23
2022-12-14T22:07:38.397Z,30.08
2022-12-14T22:10:07.210Z,31.23
2022-12-14T22:12:35.148Z,29.08
2022-12-14T22:15:03.280Z,28.50
2022-12-14T22:17:32.723Z,27.88
2022-12-14T22:20:00.627Z,31.75
2022-12-14T22:22:28.601Z,27.50
2022-12-14T22:24:56.561Z,28.52
2022-12-14T22:27:24.621Z,28.20
2022-12-14T22:29:52.524Z,28.13
2022-12-14T22:32:20.645Z,26.38
2022-12-14T22:34:50.366Z,28.98
2022-12-14T22:37:18.679Z,30.05
2022-12-14T22:39:47.680Z,29.77
2022-12-14T22:42:16.496Z,28.30
2022-12-14T22:44:44.538Z,29.00
2022-12-14T22:47:12.530Z,28.08
2022-12-14T22:49:40.740Z,28.02
2022-12-14T22:52:10.231Z,33.45
2022-12-14T22:54:39.494Z,29.65
2022-12-14T22:57:11.095Z,29.83
2022-12-14T22:59:43.694Z,32.42
2022-12-14T23:02:11.850Z,31.38
2022-12-14T23:04:40.230Z,29.70
2022-12-14T23:07:09.584Z,29.20
2022-12-14T23:09:54.767Z,28.65
2022-12-14T23:12:40.805Z,29.52
2022-12-14T23:15:26.430Z,29.23
2022-12-14T23:18:13.908Z,27.90
2022-12-14T23:20:59.648Z,31.52
2022-12-14T23:23:46.386Z,30.23
2022-12-14T23:26:31.664Z,29.63
2022-12-14T23:29:17.179Z,27.90
2022-12-14T23:32:02.771Z,29.23
2022-12-14T23:34:48.293Z,28.35
2022-12-14T23:37:34.217Z,28.77
2022-12-14T23:40:20.874Z,26.85
2022-12-14T23:43:06.364Z,26.63
2022-12-14T23:45:52.179Z,28.13
2022-12-14T23:48:37.751Z,29.45
2022-12-14T23:51:24.035Z,27.05
2022-12-14T23:54:09.505Z,28.67
2022-12-14T23:56:56.241Z,28.63
2022-12-14T23:59:41.805Z,27.90
